Terminal Aerodrome Forecast
Issued by NWS

Home | Current Version | Previous Version | Text Only | Print | Product List | Glossary On
Versions: 1 2 3 4 5 6 7 8 9 10 11 12 13 14 15
000
FTUS44 KEPZ 271123
TAFLRU
TAF
KLRU 271123Z 2712/2812 10006KT P6SM VCSH SCT060 BKN100
     FM271800 16008KT P6SM VCTS SCT060CB BKN100
      TEMPO 2800/2804 1SM TSRA BKN040CB
     FM280400 VRB05KT P6SM VCTS SCT050CB BKN100=

USA.gov is the U.S. government's official web portal to all federal, state and local government web resources and services.